createdAt,value
2023-03-26T00:01:19.299Z,76.34
2023-03-26T00:03:47.178Z,76.26
2023-03-26T00:06:16.686Z,76.15
2023-03-26T00:08:45.713Z,76.38
2023-03-26T00:11:16.000Z,76.46
2023-03-26T00:13:46.802Z,76.26
2023-03-26T00:16:16.608Z,76.11
2023-03-26T00:18:44.358Z,76.04
2023-03-26T00:21:15.082Z,76.46
2023-03-26T00:23:42.057Z,76.30
2023-03-26T00:26:10.618Z,75.88
2023-03-26T00:28:42.257Z,76.12
2023-03-26T00:31:12.988Z,76.26
2023-03-26T00:33:41.405Z,76.37
2023-03-26T00:36:11.886Z,76.54
2023-03-26T00:38:39.606Z,76.21
2023-03-26T00:41:17.930Z,76.20
2023-03-26T00:43:46.638Z,76.13
2023-03-26T00:46:13.607Z,76.63
2023-03-26T00:48:45.596Z,76.43
2023-03-26T00:51:17.615Z,76.50
2023-03-26T00:53:46.453Z,76.25
2023-03-26T00:56:13.974Z,76.41
2023-03-26T00:58:41.012Z,76.01
2023-03-26T01:01:14.369Z,75.88
2023-03-26T01:03:53.115Z,76.10
2023-03-26T01:06:36.659Z,76.42
2023-03-26T01:09:20.806Z,75.79
2023-03-26T01:11:49.858Z,76.21
2023-03-26T01:14:23.733Z,75.93
2023-03-26T01:16:53.997Z,76.56
2023-03-26T01:19:45.460Z,76.37
2023-03-26T01:22:18.637Z,76.23
2023-03-26T01:24:53.245Z,75.96
2023-03-26T01:27:33.635Z,76.43
2023-03-26T01:30:03.897Z,76.35
2023-03-26T01:32:59.177Z,76.57
2023-03-26T01:35:43.287Z,76.49
2023-03-26T01:38:28.775Z,76.42
2023-03-26T01:41:06.560Z,76.25
2023-03-26T01:44:00.036Z,76.22
2023-03-26T01:46:28.778Z,76.05
2023-03-26T01:48:55.899Z,75.95
2023-03-26T01:51:33.015Z,76.02
2023-03-26T01:54:01.969Z,76.02
2023-03-26T01:57:00.013Z,75.98
2023-03-26T01:59:29.520Z,76.24
2023-03-26T02:02:04.984Z,75.89
2023-03-26T02:04:38.562Z,75.81
2023-03-26T02:07:44.782Z,75.94
2023-03-26T02:10:18.848Z,75.65
2023-03-26T02:12:45.893Z,75.88
2023-03-26T02:15:13.128Z,75.99
2023-03-26T02:17:40.395Z,75.76
2023-03-26T02:20:14.196Z,75.66
2023-03-26T02:22:46.015Z,75.75
2023-03-26T02:25:21.221Z,75.62
2023-03-26T02:27:49.627Z,76.02
2023-03-26T02:30:20.613Z,75.71
2023-03-26T02:32:47.352Z,75.71
2023-03-26T02:35:14.152Z,75.81
2023-03-26T02:37:42.184Z,76.13
2023-03-26T02:40:11.790Z,76.26
2023-03-26T02:42:39.247Z,75.80
2023-03-26T02:45:08.030Z,76.04
2023-03-26T02:47:35.168Z,75.80
2023-03-26T02:50:03.745Z,76.30
2023-03-26T02:52:30.499Z,75.73
2023-03-26T02:54:57.839Z,75.69
2023-03-26T02:57:25.033Z,75.82
2023-03-26T02:59:52.898Z,75.75
2023-03-26T03:02:20.453Z,75.90
2023-03-26T03:04:47.251Z,75.76
2023-03-26T03:07:15.064Z,75.87
2023-03-26T03:09:41.781Z,76.03
2023-03-26T03:12:08.429Z,75.95
2023-03-26T03:14:35.396Z,75.80
2023-03-26T03:17:02.062Z,75.60
2023-03-26T03:19:28.724Z,75.60
2023-03-26T03:21:55.393Z,75.44
2023-03-26T03:24:22.035Z,76.01
2023-03-26T03:26:50.309Z,75.84
2023-03-26T03:29:17.389Z,75.69
2023-03-26T03:31:44.000Z,75.86
2023-03-26T03:34:10.677Z,75.99
2023-03-26T03:36:38.427Z,75.96
2023-03-26T03:39:05.338Z,75.99
2023-03-26T03:41:32.293Z,75.85
2023-03-26T03:43:59.914Z,75.87
2023-03-26T03:46:26.926Z,75.78
2023-03-26T03:48:53.508Z,75.82
2023-03-26T03:51:20.309Z,75.63
2023-03-26T03:53:47.634Z,75.65
2023-03-26T03:56:14.840Z,75.60
2023-03-26T03:58:42.257Z,75.97
2023-03-26T04:01:09.523Z,75.49
2023-03-26T04:03:38.951Z,75.78
2023-03-26T04:06:07.382Z,76.04
2023-03-26T04:08:34.871Z,76.08
2023-03-26T04:11:01.639Z,75.74
2023-03-26T04:13:28.252Z,75.65
2023-03-26T04:15:56.533Z,75.42
2023-03-26T04:18:23.381Z,75.63
2023-03-26T04:20:50.823Z,75.28
2023-03-26T04:23:18.822Z,75.25
2023-03-26T04:25:49.145Z,75.22
2023-03-26T04:28:42.434Z,74.99
2023-03-26T04:31:15.732Z,75.24
2023-03-26T04:33:49.066Z,74.88
2023-03-26T04:36:16.968Z,74.77
2023-03-26T04:38:52.080Z,74.72
2023-03-26T04:41:22.414Z,75.23
2023-03-26T04:43:50.762Z,75.14
2023-03-26T04:46:23.823Z,74.79
2023-03-26T04:48:51.416Z,75.05
2023-03-26T04:51:21.966Z,75.12
2023-03-26T04:53:51.343Z,74.83
2023-03-26T04:56:32.233Z,74.89
2023-03-26T04:59:01.362Z,74.77
2023-03-26T05:01:28.604Z,74.88
2023-03-26T05:03:55.679Z,74.83
2023-03-26T05:06:22.454Z,74.97
2023-03-26T05:08:49.018Z,75.16
2023-03-26T05:11:15.829Z,74.86
2023-03-26T05:13:43.005Z,75.00
2023-03-26T05:16:11.335Z,74.94
2023-03-26T05:18:38.280Z,75.13
2023-03-26T05:21:05.372Z,75.22
2023-03-26T05:23:32.073Z,75.24
2023-03-26T05:25:58.766Z,75.27
2023-03-26T05:28:27.033Z,75.51
2023-03-26T05:30:54.625Z,75.12
2023-03-26T05:33:22.173Z,75.39
2023-03-26T05:35:59.229Z,75.22
2023-03-26T05:38:25.865Z,75.14
2023-03-26T05:40:57.904Z,75.33
2023-03-26T05:43:25.257Z,75.38
2023-03-26T05:45:52.446Z,75.30
2023-03-26T05:48:19.432Z,75.27
2023-03-26T05:50:50.980Z,75.38
2023-03-26T05:53:18.644Z,75.13
2023-03-26T05:55:46.749Z,75.31
2023-03-26T05:58:13.974Z,75.12
2023-03-26T06:00:40.644Z,75.07
2023-03-26T06:03:12.752Z,75.09
2023-03-26T06:05:40.391Z,75.35
2023-03-26T06:08:07.821Z,74.99
2023-03-26T06:10:38.140Z,75.23
2023-03-26T06:13:05.498Z,74.61
2023-03-26T06:15:32.144Z,74.80
2023-03-26T06:17:58.765Z,74.67
2023-03-26T06:20:25.631Z,74.54
2023-03-26T06:22:52.199Z,74.32
2023-03-26T06:25:20.114Z,74.80
2023-03-26T06:27:46.874Z,74.16
2023-03-26T06:30:13.709Z,74.47
2023-03-26T06:32:40.415Z,74.12
2023-03-26T06:35:07.402Z,74.03
2023-03-26T06:37:34.297Z,74.16
2023-03-26T06:40:00.989Z,74.03
2023-03-26T06:43:06.754Z,73.29
2023-03-26T06:45:14.292Z,72.73
2023-03-26T06:47:41.367Z,73.25
2023-03-26T06:50:09.185Z,72.70
2023-03-26T06:52:35.963Z,72.71
2023-03-26T06:55:02.759Z,72.78
2023-03-26T06:57:29.374Z,72.33
2023-03-26T06:59:56.008Z,72.10
2023-03-26T07:02:22.753Z,71.17
2023-03-26T07:04:49.798Z,71.34
2023-03-26T07:07:16.536Z,70.27
2023-03-26T07:09:43.142Z,69.79
2023-03-26T07:12:09.894Z,69.46
2023-03-26T07:14:38.755Z,69.35
2023-03-26T07:17:05.793Z,68.40
2023-03-26T07:19:33.024Z,68.41
2023-03-26T07:22:00.222Z,68.57
2023-03-26T07:24:27.326Z,68.38
2023-03-26T07:27:27.374Z,67.07
2023-03-26T07:30:02.939Z,66.26
2023-03-26T07:32:52.266Z,66.57
2023-03-26T07:35:37.143Z,66.47
2023-03-26T07:38:32.959Z,66.00
2023-03-26T07:41:36.148Z,64.84
2023-03-26T07:44:38.177Z,65.17
2023-03-26T07:47:25.833Z,65.09
2023-03-26T07:49:54.798Z,64.66
2023-03-26T07:52:22.074Z,63.98
2023-03-26T07:54:49.233Z,64.75
2023-03-26T07:57:58.874Z,64.59
2023-03-26T08:00:48.948Z,64.18
2023-03-26T08:03:39.370Z,63.03
2023-03-26T08:06:14.961Z,63.06
2023-03-26T08:09:00.708Z,62.58
2023-03-26T08:11:40.715Z,62.75
2023-03-26T08:14:16.766Z,61.88
2023-03-26T08:16:54.809Z,61.27
2023-03-26T08:19:41.086Z,60.88
2023-03-26T08:22:26.439Z,60.14
2023-03-26T08:25:02.381Z,60.51
2023-03-26T08:27:40.203Z,60.18
2023-03-26T08:30:17.549Z,59.40
2023-03-26T08:32:54.102Z,60.30
2023-03-26T08:35:20.953Z,59.89
2023-03-26T08:37:47.615Z,59.41
2023-03-26T08:40:23.726Z,58.95
2023-03-26T08:42:56.508Z,58.86
2023-03-26T08:45:38.813Z,58.58
2023-03-26T08:48:36.718Z,57.21
2023-03-26T08:51:15.292Z,57.98
2023-03-26T08:53:54.636Z,57.51
2023-03-26T08:56:39.895Z,57.15
2023-03-26T08:59:34.339Z,56.83
2023-03-26T09:02:17.394Z,56.27
2023-03-26T09:05:11.503Z,56.44
2023-03-26T09:08:05.519Z,56.55
2023-03-26T09:10:52.084Z,56.78
2023-03-26T09:13:55.976Z,56.72
2023-03-26T09:16:37.979Z,56.51
2023-03-26T09:19:26.170Z,56.26
2023-03-26T09:22:06.358Z,55.38
2023-03-26T09:24:51.603Z,53.69
2023-03-26T09:27:48.763Z,54.94
2023-03-26T09:30:39.816Z,54.80
2023-03-26T09:33:37.307Z,54.89
2023-03-26T09:36:21.892Z,53.96
2023-03-26T09:39:03.788Z,54.06
2023-03-26T09:41:44.061Z,53.97
2023-03-26T09:44:40.902Z,53.96
2023-03-26T09:47:35.795Z,53.36
2023-03-26T09:50:20.463Z,53.39
2023-03-26T09:53:00.777Z,52.90
2023-03-26T09:55:27.642Z,52.59
2023-03-26T09:58:09.308Z,52.41
2023-03-26T10:01:27.569Z,53.15
2023-03-26T10:04:28.959Z,52.99
2023-03-26T10:07:04.621Z,52.73
2023-03-26T10:09:52.738Z,52.90
2023-03-26T10:12:23.985Z,51.61
2023-03-26T10:15:03.254Z,51.50
2023-03-26T10:17:48.427Z,51.86
2023-03-26T10:20:35.437Z,52.35
2023-03-26T10:23:10.660Z,51.33
2023-03-26T10:25:49.146Z,51.63
2023-03-26T10:28:30.925Z,51.91
2023-03-26T10:31:19.681Z,52.42
2023-03-26T10:34:01.531Z,52.73
2023-03-26T10:37:04.154Z,52.54
2023-03-26T10:39:45.924Z,52.75
2023-03-26T10:42:34.087Z,53.21
2023-03-26T10:45:07.420Z,54.03
2023-03-26T10:47:54.260Z,53.51
2023-03-26T10:50:27.838Z,53.03
2023-03-26T10:53:20.324Z,53.02
2023-03-26T10:55:54.802Z,52.72
2023-03-26T10:58:27.281Z,53.25
2023-03-26T11:01:00.927Z,53.42
2023-03-26T11:03:56.395Z,53.56
2023-03-26T11:06:30.260Z,53.69
2023-03-26T11:09:03.907Z,53.66
2023-03-26T11:11:56.391Z,53.73
2023-03-26T11:14:42.254Z,52.83
2023-03-26T11:17:39.435Z,52.75
2023-03-26T11:20:16.800Z,52.04
2023-03-26T11:23:12.160Z,51.85
2023-03-26T11:25:50.617Z,52.17
2023-03-26T11:28:32.142Z,52.45
2023-03-26T11:31:13.517Z,52.00
2023-03-26T11:33:48.993Z,51.69
2023-03-26T11:36:21.728Z,51.99
2023-03-26T11:38:50.899Z,51.74
2023-03-26T11:41:26.779Z,50.79
2023-03-26T11:44:07.230Z,51.47
2023-03-26T11:46:38.862Z,51.22
2023-03-26T11:49:11.233Z,51.57
2023-03-26T11:51:39.645Z,50.60
2023-03-26T11:54:08.061Z,50.61
2023-03-26T11:57:04.410Z,50.39
2023-03-26T11:59:59.054Z,50.32
2023-03-26T12:02:39.369Z,49.48
2023-03-26T12:05:18.378Z,49.91
2023-03-26T12:07:57.351Z,49.70
2023-03-26T12:10:43.084Z,48.39
2023-03-26T12:13:43.089Z,48.98
2023-03-26T12:16:13.969Z,49.20
2023-03-26T12:18:44.069Z,49.67
2023-03-26T12:21:15.495Z,50.31
2023-03-26T12:24:01.744Z,49.98
2023-03-26T12:26:42.891Z,50.13
2023-03-26T12:29:15.786Z,49.18
2023-03-26T12:31:51.304Z,49.48
2023-03-26T12:34:21.712Z,48.48
2023-03-26T12:36:53.545Z,48.35
2023-03-26T12:40:07.500Z,48.54
2023-03-26T12:44:46.703Z,48.65
2023-03-26T12:45:13.720Z,48.77
2023-03-26T12:48:01.302Z,48.91
2023-03-26T12:50:36.976Z,49.23
2023-03-26T12:53:41.896Z,49.77
2023-03-26T12:56:20.027Z,49.65
2023-03-26T12:59:34.177Z,50.02
2023-03-26T13:02:34.686Z,49.61
2023-03-26T13:05:19.520Z,50.09
2023-03-26T13:08:21.544Z,48.84
2023-03-26T13:11:08.315Z,49.02
2023-03-26T13:13:53.422Z,49.23
2023-03-26T13:16:25.862Z,49.32
2023-03-26T13:19:07.132Z,48.93
2023-03-26T13:21:53.714Z,49.16
2023-03-26T13:24:45.435Z,48.35
2023-03-26T13:27:30.984Z,48.28
2023-03-26T13:30:18.863Z,48.80
2023-03-26T13:33:01.171Z,48.63
2023-03-26T13:36:00.677Z,48.13
2023-03-26T13:38:39.916Z,47.60
2023-03-26T13:41:17.974Z,47.56
2023-03-26T13:44:08.015Z,47.93
2023-03-26T13:46:42.977Z,47.43
2023-03-26T13:49:15.444Z,48.06
2023-03-26T13:51:48.387Z,47.19
2023-03-26T13:54:30.592Z,47.57
2023-03-26T13:57:20.314Z,48.00
2023-03-26T13:59:54.384Z,48.42
2023-03-26T14:02:40.719Z,48.70
2023-03-26T14:05:19.622Z,49.31
2023-03-26T14:07:57.395Z,48.84
2023-03-26T14:10:27.365Z,49.24
2023-03-26T14:13:15.786Z,48.36
2023-03-26T14:15:50.097Z,47.74
2023-03-26T14:18:38.681Z,47.79
2023-03-26T14:21:17.538Z,47.46
2023-03-26T14:23:59.131Z,47.59
2023-03-26T14:26:37.639Z,47.27
2023-03-26T14:29:30.587Z,47.72
2023-03-26T14:32:14.714Z,46.87
2023-03-26T14:35:16.532Z,47.38
2023-03-26T14:38:15.021Z,46.83
2023-03-26T14:41:06.264Z,46.60
2023-03-26T14:43:59.609Z,47.22
2023-03-26T14:46:32.420Z,47.67
2023-03-26T14:49:21.062Z,47.21
2023-03-26T14:52:02.761Z,47.16
2023-03-26T14:54:34.393Z,46.74
2023-03-26T14:57:36.286Z,47.58
2023-03-26T15:00:15.812Z,46.50
2023-03-26T15:03:00.290Z,45.31
2023-03-26T15:05:48.953Z,46.21
2023-03-26T15:08:39.951Z,46.45
2023-03-26T15:11:27.043Z,46.36
2023-03-26T15:14:03.830Z,46.51
2023-03-26T15:16:33.655Z,45.97
2023-03-26T15:19:28.229Z,46.62
2023-03-26T15:22:00.484Z,46.16
2023-03-26T15:24:27.438Z,45.90
2023-03-26T15:27:27.999Z,45.90
2023-03-26T15:30:17.833Z,45.95
2023-03-26T15:32:57.291Z,46.56
2023-03-26T15:35:54.194Z,45.87
2023-03-26T15:38:46.546Z,46.64
2023-03-26T15:41:27.924Z,48.16
2023-03-26T15:44:23.876Z,47.82
2023-03-26T15:47:02.972Z,46.56
2023-03-26T15:49:48.423Z,47.45
2023-03-26T15:52:31.376Z,47.44
2023-03-26T15:55:27.886Z,47.46
2023-03-26T15:58:21.427Z,47.69
2023-03-26T16:00:57.322Z,47.80
2023-03-26T16:03:48.203Z,48.10
2023-03-26T16:06:15.944Z,49.42
2023-03-26T16:09:30.844Z,49.64
2023-03-26T16:11:59.760Z,50.23
2023-03-26T16:14:35.597Z,50.82
2023-03-26T16:17:06.611Z,50.36
2023-03-26T16:19:49.589Z,50.70
2023-03-26T16:22:56.311Z,51.01
2023-03-26T16:25:29.637Z,50.25
2023-03-26T16:28:09.144Z,50.35
2023-03-26T16:30:36.195Z,50.50
2023-03-26T16:33:18.603Z,50.50
2023-03-26T16:36:06.445Z,51.13
2023-03-26T16:39:05.571Z,51.64
2023-03-26T16:41:32.225Z,51.85
2023-03-26T16:44:20.447Z,51.54
2023-03-26T16:47:17.995Z,51.82
2023-03-26T16:50:18.861Z,51.80
2023-03-26T16:52:54.393Z,52.27
2023-03-26T16:55:41.494Z,52.58
2023-03-26T16:58:11.222Z,53.17
2023-03-26T17:00:48.170Z,53.26
2023-03-26T17:03:27.072Z,52.89
2023-03-26T17:05:57.125Z,51.70
2023-03-26T17:08:53.381Z,52.18
2023-03-26T17:11:45.439Z,52.18
2023-03-26T17:14:32.964Z,52.52
2023-03-26T17:17:02.657Z,52.52
2023-03-26T17:19:46.681Z,52.93
2023-03-26T17:22:22.233Z,52.56
2023-03-26T17:24:55.930Z,52.66
2023-03-26T17:27:46.380Z,52.38
2023-03-26T17:30:41.092Z,52.35
2023-03-26T17:33:26.873Z,52.05
2023-03-26T17:36:11.887Z,52.16
2023-03-26T17:38:45.206Z,52.02
2023-03-26T17:41:15.871Z,52.64
2023-03-26T17:43:52.815Z,52.60
2023-03-26T17:46:40.798Z,52.68
2023-03-26T17:49:16.438Z,52.71
2023-03-26T17:52:04.747Z,52.89
2023-03-26T17:54:36.155Z,53.16
2023-03-26T17:57:13.009Z,53.49
2023-03-26T17:59:40.976Z,52.98
2023-03-26T18:02:15.493Z,53.48
2023-03-26T18:04:45.698Z,53.62
2023-03-26T18:07:41.918Z,54.21
2023-03-26T18:10:20.647Z,53.87
2023-03-26T18:13:02.504Z,53.79
2023-03-26T18:15:51.721Z,54.43
2023-03-26T18:18:33.230Z,54.54
2023-03-26T18:21:04.591Z,54.76
2023-03-26T18:23:47.862Z,54.85
2023-03-26T18:26:23.084Z,54.74
2023-03-26T18:29:08.532Z,54.64
2023-03-26T18:31:36.160Z,55.24
2023-03-26T18:34:11.807Z,55.00
2023-03-26T18:36:38.827Z,55.08
2023-03-26T18:39:13.969Z,54.94
2023-03-26T18:41:42.557Z,54.52
2023-03-26T18:44:18.252Z,54.64
2023-03-26T18:46:45.837Z,54.95
2023-03-26T18:49:14.553Z,54.76
2023-03-26T18:51:53.978Z,55.04
2023-03-26T18:54:24.738Z,55.44
2023-03-26T18:56:52.746Z,55.33
2023-03-26T18:59:34.240Z,55.04
2023-03-26T19:02:05.119Z,55.20
2023-03-26T19:04:37.026Z,55.47
2023-03-26T19:07:10.414Z,55.46
2023-03-26T19:09:38.897Z,55.82
2023-03-26T19:12:07.322Z,55.95
2023-03-26T19:14:37.317Z,55.43
2023-03-26T19:17:07.060Z,56.05
2023-03-26T19:19:37.179Z,55.97
2023-03-26T19:22:08.760Z,55.98
2023-03-26T19:24:35.806Z,55.96
2023-03-26T19:27:03.606Z,56.07
2023-03-26T19:29:33.885Z,55.91
2023-03-26T19:32:32.403Z,56.04
2023-03-26T19:35:00.825Z,56.13
2023-03-26T19:37:32.565Z,56.21
2023-03-26T19:40:20.322Z,56.48
2023-03-26T19:42:48.857Z,56.36
2023-03-26T19:45:23.217Z,56.23
2023-03-26T19:48:03.677Z,56.61
2023-03-26T19:50:43.096Z,56.05
2023-03-26T19:53:24.141Z,56.52
2023-03-26T19:56:15.398Z,56.71
2023-03-26T19:58:42.869Z,56.67
2023-03-26T20:01:24.868Z,56.86
2023-03-26T20:03:54.974Z,56.53
2023-03-26T20:06:28.140Z,56.75
2023-03-26T20:09:05.476Z,57.08
2023-03-26T20:11:38.094Z,57.64
2023-03-26T20:14:18.141Z,57.82
2023-03-26T20:16:45.986Z,57.19
2023-03-26T20:19:14.840Z,57.56
2023-03-26T20:21:42.424Z,57.13
2023-03-26T20:24:14.567Z,57.41
2023-03-26T20:26:41.566Z,57.47
2023-03-26T20:29:08.597Z,57.55
2023-03-26T20:31:35.246Z,57.77
2023-03-26T20:34:01.899Z,57.30
2023-03-26T20:36:33.274Z,57.66
2023-03-26T20:39:05.969Z,57.94
2023-03-26T20:41:33.909Z,57.73
2023-03-26T20:44:01.068Z,57.99
2023-03-26T20:46:31.165Z,58.29
2023-03-26T20:48:59.711Z,58.07
2023-03-26T20:51:28.804Z,58.11
2023-03-26T20:53:56.287Z,58.26
2023-03-26T20:56:23.633Z,58.50
2023-03-26T20:59:03.685Z,58.23
2023-03-26T21:01:38.029Z,58.59
2023-03-26T21:04:05.397Z,58.91
2023-03-26T21:06:32.153Z,58.71
2023-03-26T21:08:59.271Z,58.66
2023-03-26T21:11:35.810Z,59.06
2023-03-26T21:14:15.789Z,59.09
2023-03-26T21:16:42.800Z,58.86
2023-03-26T21:19:12.985Z,59.18
2023-03-26T21:21:46.225Z,58.96
2023-03-26T21:24:35.050Z,59.01
2023-03-26T21:27:26.222Z,59.18
2023-03-26T21:29:55.010Z,58.94
2023-03-26T21:32:22.694Z,58.87
2023-03-26T21:34:58.583Z,59.31
2023-03-26T21:37:27.803Z,58.89
2023-03-26T21:39:54.753Z,59.42
2023-03-26T21:42:21.798Z,59.18
2023-03-26T21:44:48.798Z,59.12
2023-03-26T21:47:16.126Z,59.60
2023-03-26T21:49:43.178Z,59.15
2023-03-26T21:52:14.984Z,59.36
2023-03-26T21:54:43.349Z,59.75
2023-03-26T21:57:27.651Z,59.26
2023-03-26T21:59:57.218Z,59.75
2023-03-26T22:03:09.079Z,59.65
2023-03-26T22:06:17.165Z,59.92
2023-03-26T22:08:44.018Z,60.25
2023-03-26T22:11:12.390Z,60.02
2023-03-26T22:13:39.214Z,60.14
2023-03-26T22:16:07.667Z,60.50
2023-03-26T22:18:34.688Z,60.38
2023-03-26T22:21:01.911Z,60.75
2023-03-26T22:23:36.352Z,60.48
2023-03-26T22:26:04.778Z,60.70
2023-03-26T22:28:31.891Z,61.06
2023-03-26T22:30:59.203Z,60.71
2023-03-26T22:33:26.840Z,60.96
2023-03-26T22:35:55.606Z,61.34
2023-03-26T22:38:22.312Z,61.52
2023-03-26T22:40:57.022Z,61.52
2023-03-26T22:43:23.969Z,61.67
2023-03-26T22:45:51.566Z,61.47
2023-03-26T22:48:18.621Z,61.73
2023-03-26T22:50:45.402Z,62.00
2023-03-26T22:53:12.078Z,62.18
2023-03-26T22:55:38.891Z,61.87
2023-03-26T22:58:05.491Z,61.66
2023-03-26T23:00:32.382Z,62.48
2023-03-26T23:03:00.494Z,62.18
2023-03-26T23:05:27.785Z,62.10
2023-03-26T23:07:54.404Z,62.36
2023-03-26T23:10:22.000Z,62.29
2023-03-26T23:12:49.602Z,62.57
2023-03-26T23:15:16.303Z,62.83
2023-03-26T23:17:43.121Z,62.82
2023-03-26T23:20:15.238Z,62.80
2023-03-26T23:22:43.060Z,62.80
2023-03-26T23:25:11.600Z,63.19
2023-03-26T23:27:40.166Z,63.05
2023-03-26T23:30:07.473Z,63.26
2023-03-26T23:32:37.901Z,63.39
2023-03-26T23:35:05.341Z,63.18
2023-03-26T23:37:34.905Z,63.50
2023-03-26T23:40:02.048Z,63.46
2023-03-26T23:42:29.768Z,63.76
2023-03-26T23:44:57.400Z,63.95
2023-03-26T23:47:24.479Z,64.15
2023-03-26T23:49:51.325Z,64.20
2023-03-26T23:52:18.445Z,64.33
2023-03-26T23:54:45.655Z,64.06
2023-03-26T23:57:12.543Z,64.32
2023-03-26T23:59:41.442Z,64.75
